sensor_id;sensor_type;location;lat;lon;timestamp;pressure;altitude;pressure_sealevel;temperature;humidity
81181;BME280;70650;51.408;7.132;2023-07-02T00:01:50;99684.00;;;16.00;80.66
81181;BME280;70650;51.408;7.132;2023-07-02T00:04:15;99686.22;;;16.04;80.80
81181;BME280;70650;51.408;7.132;2023-07-02T00:06:47;99682.16;;;16.00;80.89
81181;BME280;70650;51.408;7.132;2023-07-02T00:09:14;99678.78;;;15.98;80.70
81181;BME280;70650;51.408;7.132;2023-07-02T00:11:41;99671.22;;;16.03;80.65
81181;BME280;70650;51.408;7.132;2023-07-02T00:14:08;99679.50;;;16.00;80.05
81181;BME280;70650;51.408;7.132;2023-07-02T00:16:35;99675.31;;;16.07;80.17
81181;BME280;70650;51.408;7.132;2023-07-02T00:19:00;99675.84;;;16.01;79.90
81181;BME280;70650;51.408;7.132;2023-07-02T00:21:26;99686.22;;;16.04;79.95
81181;BME280;70650;51.408;7.132;2023-07-02T00:23:53;99682.63;;;16.05;79.85
81181;BME280;70650;51.408;7.132;2023-07-02T00:26:18;99682.63;;;16.05;79.21
81181;BME280;70650;51.408;7.132;2023-07-02T00:28:43;99688.66;;;16.07;79.69
81181;BME280;70650;51.408;7.132;2023-07-02T00:31:08;99682.88;;;16.02;79.67
81181;BME280;70650;51.408;7.132;2023-07-02T00:33:34;99688.19;;;16.02;79.64
81181;BME280;70650;51.408;7.132;2023-07-02T00:35:59;99681.88;;;16.03;79.42
81181;BME280;70650;51.408;7.132;2023-07-02T00:38:26;99673.88;;;16.03;79.73
81181;BME280;70650;51.408;7.132;2023-07-02T00:40:51;99680.19;;;16.02;79.58
81181;BME280;70650;51.408;7.132;2023-07-02T00:43:16;99680.34;;;16.01;79.65
81181;BME280;70650;51.408;7.132;2023-07-02T00:45:41;99677.28;;;16.05;79.36
81181;BME280;70650;51.408;7.132;2023-07-02T00:48:07;99680.50;;;16.09;79.44
81181;BME280;70650;51.408;7.132;2023-07-02T00:50:32;99671.06;;;16.05;78.99
81181;BME280;70650;51.408;7.132;2023-07-02T00:52:58;99675.72;;;16.03;79.19
81181;BME280;70650;51.408;7.132;2023-07-02T00:55:24;99680.91;;;16.04;79.33
81181;BME280;70650;51.408;7.132;2023-07-02T00:57:49;99673.28;;;15.90;79.05
81181;BME280;70650;51.408;7.132;2023-07-02T01:00:15;99675.78;;;15.92;79.59
81181;BME280;70650;51.408;7.132;2023-07-02T01:02:41;99664.69;;;15.86;79.58
81181;BME280;70650;51.408;7.132;2023-07-02T01:05:14;99668.72;;;15.81;79.51
81181;BME280;70650;51.408;7.132;2023-07-02T01:07:39;99674.19;;;15.79;79.94
81181;BME280;70650;51.408;7.132;2023-07-02T01:10:05;99677.25;;;15.75;79.96
81181;BME280;70650;51.408;7.132;2023-07-02T01:12:31;99670.25;;;15.74;79.77
81181;BME280;70650;51.408;7.132;2023-07-02T01:15:00;99669.97;;;15.77;79.98
81181;BME280;70650;51.408;7.132;2023-07-02T01:17:27;99670.25;;;15.74;79.64
81181;BME280;70650;51.408;7.132;2023-07-02T01:19:55;99670.94;;;15.76;79.37
81181;BME280;70650;51.408;7.132;2023-07-02T01:22:26;99671.75;;;15.67;80.14
81181;BME280;70650;51.408;7.132;2023-07-02T01:24:52;99670.91;;;15.66;80.18
81181;BME280;70650;51.408;7.132;2023-07-02T01:27:18;99666.69;;;15.63;80.20
81181;BME280;70650;51.408;7.132;2023-07-02T01:29:44;99662.19;;;15.64;80.02
81181;BME280;70650;51.408;7.132;2023-07-02T01:32:15;99653.72;;;15.59;80.12
81181;BME280;70650;51.408;7.132;2023-07-02T01:34:40;99638.34;;;15.62;79.73
81181;BME280;70650;51.408;7.132;2023-07-02T01:37:06;99632.03;;;15.63;79.67
81181;BME280;70650;51.408;7.132;2023-07-02T01:39:31;99633.31;;;15.48;80.31
81181;BME280;70650;51.408;7.132;2023-07-02T01:42:17;99645.22;;;15.44;80.75
81181;BME280;70650;51.408;7.132;2023-07-02T01:44:43;99637.03;;;15.36;80.74
81181;BME280;70650;51.408;7.132;2023-07-02T01:47:09;99651.00;;;15.28;80.53
81181;BME280;70650;51.408;7.132;2023-07-02T01:49:34;99647.63;;;15.26;80.91
81181;BME280;70650;51.408;7.132;2023-07-02T01:52:01;99657.94;;;15.20;80.45
81181;BME280;70650;51.408;7.132;2023-07-02T01:54:28;99669.38;;;15.10;80.30
81181;BME280;70650;51.408;7.132;2023-07-02T01:56:54;99678.91;;;15.13;80.24
81181;BME280;70650;51.408;7.132;2023-07-02T01:59:19;99688.03;;;15.10;80.23
81181;BME280;70650;51.408;7.132;2023-07-02T02:01:45;99689.19;;;15.18;79.79
81181;BME280;70650;51.408;7.132;2023-07-02T02:04:11;99696.19;;;15.19;79.55
81181;BME280;70650;51.408;7.132;2023-07-02T02:06:37;99680.81;;;15.22;79.41
81181;BME280;70650;51.408;7.132;2023-07-02T02:09:04;99680.22;;;15.19;79.50
81181;BME280;70650;51.408;7.132;2023-07-02T02:11:34;99679.50;;;15.17;79.13
81181;BME280;70650;51.408;7.132;2023-07-02T02:13:59;99687.63;;;15.15;78.85
81181;BME280;70650;51.408;7.132;2023-07-02T02:16:28;99697.09;;;15.08;78.97
81181;BME280;70650;51.408;7.132;2023-07-02T02:18:53;99689.09;;;15.08;78.87
81181;BME280;70650;51.408;7.132;2023-07-02T02:21:19;99701.84;;;15.04;78.79
81181;BME280;70650;51.408;7.132;2023-07-02T02:23:45;99699.69;;;14.98;78.74
81181;BME280;70650;51.408;7.132;2023-07-02T02:26:10;99700.63;;;14.97;78.58
81181;BME280;70650;51.408;7.132;2023-07-02T02:28:36;99706.56;;;15.01;78.69
81181;BME280;70650;51.408;7.132;2023-07-02T02:31:01;99712.78;;;14.90;78.74
81181;BME280;70650;51.408;7.132;2023-07-02T02:33:27;99703.81;;;14.91;78.48
81181;BME280;70650;51.408;7.132;2023-07-02T02:35:52;99705.38;;;14.94;78.18
81181;BME280;70650;51.408;7.132;2023-07-02T02:38:17;99712.03;;;14.99;78.20
81181;BME280;70650;51.408;7.132;2023-07-02T02:40:43;99705.97;;;14.97;78.19
81181;BME280;70650;51.408;7.132;2023-07-02T02:43:08;99709.25;;;14.90;77.95
81181;BME280;70650;51.408;7.132;2023-07-02T02:45:33;99696.66;;;14.92;78.41
81181;BME280;70650;51.408;7.132;2023-07-02T02:47:59;99703.06;;;15.00;77.74
81181;BME280;70650;51.408;7.132;2023-07-02T02:50:25;99702.00;;;14.92;77.87
81181;BME280;70650;51.408;7.132;2023-07-02T02:52:51;99699.94;;;14.95;78.05
81181;BME280;70650;51.408;7.132;2023-07-02T02:55:16;99696.28;;;14.96;77.52
81181;BME280;70650;51.408;7.132;2023-07-02T02:57:42;99705.53;;;14.92;77.40
81181;BME280;70650;51.408;7.132;2023-07-02T03:00:08;99701.88;;;14.93;77.61
81181;BME280;70650;51.408;7.132;2023-07-02T03:02:36;99705.13;;;14.97;77.49
81181;BME280;70650;51.408;7.132;2023-07-02T03:05:02;99700.91;;;14.94;77.28
81181;BME280;70650;51.408;7.132;2023-07-02T03:07:28;99697.53;;;14.92;77.35
81181;BME280;70650;51.408;7.132;2023-07-02T03:09:53;99705.63;;;14.91;77.61
81181;BME280;70650;51.408;7.132;2023-07-02T03:12:19;99705.75;;;14.89;77.33
81181;BME280;70650;51.408;7.132;2023-07-02T03:14:44;99690.75;;;14.88;77.37
81181;BME280;70650;51.408;7.132;2023-07-02T03:17:09;99699.72;;;14.87;77.46
81181;BME280;70650;51.408;7.132;2023-07-02T03:19:35;99716.78;;;14.84;77.57
81181;BME280;70650;51.408;7.132;2023-07-02T03:22:00;99713.97;;;14.86;77.44
81181;BME280;70650;51.408;7.132;2023-07-02T03:24:25;99714.44;;;14.91;77.55
81181;BME280;70650;51.408;7.132;2023-07-02T03:26:51;99723.78;;;14.85;77.48
81181;BME280;70650;51.408;7.132;2023-07-02T03:29:16;99724.53;;;14.88;77.43
81181;BME280;70650;51.408;7.132;2023-07-02T03:31:41;99716.03;;;14.94;77.38
81181;BME280;70650;51.408;7.132;2023-07-02T03:34:09;99725.59;;;14.85;77.74
81181;BME280;70650;51.408;7.132;2023-07-02T03:36:35;99740.25;;;14.79;77.86
81181;BME280;70650;51.408;7.132;2023-07-02T03:39:00;99732.53;;;14.76;78.10
81181;BME280;70650;51.408;7.132;2023-07-02T03:41:26;99739.41;;;14.79;77.91
81181;BME280;70650;51.408;7.132;2023-07-02T03:43:51;99743.75;;;14.80;77.69
81181;BME280;70650;51.408;7.132;2023-07-02T03:46:16;99741.38;;;14.77;78.00
81181;BME280;70650;51.408;7.132;2023-07-02T03:48:42;99750.81;;;14.81;78.26
81181;BME280;70650;51.408;7.132;2023-07-02T03:51:07;99742.81;;;14.81;78.27
81181;BME280;70650;51.408;7.132;2023-07-02T03:53:32;99748.59;;;14.86;77.44
81181;BME280;70650;51.408;7.132;2023-07-02T03:55:58;99751.03;;;14.78;77.88
81181;BME280;70650;51.408;7.132;2023-07-02T03:58:23;99747.25;;;14.80;77.76
81181;BME280;70650;51.408;7.132;2023-07-02T04:00:49;99751.75;;;14.80;78.49
81181;BME280;70650;51.408;7.132;2023-07-02T04:03:15;99763.00;;;14.83;77.99
81181;BME280;70650;51.408;7.132;2023-07-02T04:05:41;99760.47;;;14.82;78.11
81181;BME280;70650;51.408;7.132;2023-07-02T04:08:06;99757.69;;;14.72;78.17
81181;BME280;70650;51.408;7.132;2023-07-02T04:10:31;99762.66;;;14.77;78.64
81181;BME280;70650;51.408;7.132;2023-07-02T04:12:57;99762.53;;;14.78;78.35
81181;BME280;70650;51.408;7.132;2023-07-02T04:15:22;99766.28;;;14.76;78.67
81181;BME280;70650;51.408;7.132;2023-07-02T04:17:49;99777.16;;;14.73;78.79
81181;BME280;70650;51.408;7.132;2023-07-02T04:20:16;99778.63;;;14.77;79.22
81181;BME280;70650;51.408;7.132;2023-07-02T04:22:44;99776.94;;;14.76;78.94
81181;BME280;70650;51.408;7.132;2023-07-02T04:25:09;99771.25;;;14.69;78.91
81181;BME280;70650;51.408;7.132;2023-07-02T04:27:35;99783.22;;;14.75;78.87
81181;BME280;70650;51.408;7.132;2023-07-02T04:30:00;99782.97;;;14.78;79.07
81181;BME280;70650;51.408;7.132;2023-07-02T04:32:25;99792.91;;;14.76;78.72
81181;BME280;70650;51.408;7.132;2023-07-02T04:34:50;99798.81;;;14.79;78.88
81181;BME280;70650;51.408;7.132;2023-07-02T04:37:16;99788.66;;;14.73;79.13
81181;BME280;70650;51.408;7.132;2023-07-02T04:39:41;99792.78;;;14.77;79.30
81181;BME280;70650;51.408;7.132;2023-07-02T04:42:07;99792.91;;;14.76;79.11
81181;BME280;70650;51.408;7.132;2023-07-02T04:44:32;99800.03;;;14.75;78.90
81181;BME280;70650;51.408;7.132;2023-07-02T04:47:01;99799.44;;;14.72;79.07
81181;BME280;70650;51.408;7.132;2023-07-02T04:49:27;99803.28;;;14.79;79.14
81181;BME280;70650;51.408;7.132;2023-07-02T04:51:53;99803.28;;;14.79;79.05
81181;BME280;70650;51.408;7.132;2023-07-02T04:54:20;99797.13;;;14.78;79.26
81181;BME280;70650;51.408;7.132;2023-07-02T04:56:46;99801.47;;;14.79;79.42
81181;BME280;70650;51.408;7.132;2023-07-02T04:59:12;99803.56;;;14.76;79.08
81181;BME280;70650;51.408;7.132;2023-07-02T05:01:37;99812.25;;;14.78;78.52
81181;BME280;70650;51.408;7.132;2023-07-02T05:04:05;99812.50;;;14.75;79.56
81181;BME280;70650;51.408;7.132;2023-07-02T05:06:30;99802.94;;;14.72;79.45
81181;BME280;70650;51.408;7.132;2023-07-02T05:08:56;99814.19;;;14.76;78.94
81181;BME280;70650;51.408;7.132;2023-07-02T05:11:21;99811.41;;;14.77;79.37
81181;BME280;70650;51.408;7.132;2023-07-02T05:13:46;99812.75;;;14.72;79.61
81181;BME280;70650;51.408;7.132;2023-07-02T05:16:12;99816.50;;;14.69;79.92
81181;BME280;70650;51.408;7.132;2023-07-02T05:18:39;99815.16;;;14.75;79.90
81181;BME280;70650;51.408;7.132;2023-07-02T05:21:04;99816.09;;;14.74;79.95
81181;BME280;70650;51.408;7.132;2023-07-02T05:23:31;99815.41;;;14.72;79.77
81181;BME280;70650;51.408;7.132;2023-07-02T05:25:56;99830.03;;;14.77;79.34
81181;BME280;70650;51.408;7.132;2023-07-02T05:28:21;99825.19;;;14.82;79.53
81181;BME280;70650;51.408;7.132;2023-07-02T05:30:47;99820.44;;;14.86;79.20
81181;BME280;70650;51.408;7.132;2023-07-02T05:33:12;99826.38;;;15.01;79.01
81181;BME280;70650;51.408;7.132;2023-07-02T05:35:38;99827.69;;;15.06;78.46
81181;BME280;70650;51.408;7.132;2023-07-02T05:38:03;99827.66;;;15.18;78.61
81181;BME280;70650;51.408;7.132;2023-07-02T05:40:28;99830.81;;;15.11;77.89
81181;BME280;70650;51.408;7.132;2023-07-02T05:42:53;99832.78;;;15.09;78.21
81181;BME280;70650;51.408;7.132;2023-07-02T05:45:19;99833.63;;;15.10;78.39
81181;BME280;70650;51.408;7.132;2023-07-02T05:47:44;99839.66;;;15.12;78.03
81181;BME280;70650;51.408;7.132;2023-07-02T05:50:09;99835.16;;;15.13;77.90
81181;BME280;70650;51.408;7.132;2023-07-02T05:52:34;99843.16;;;15.13;77.96
81181;BME280;70650;51.408;7.132;2023-07-02T05:55:00;99836.34;;;15.20;77.56
81181;BME280;70650;51.408;7.132;2023-07-02T05:57:25;99847.50;;;15.25;78.04
81181;BME280;70650;51.408;7.132;2023-07-02T05:59:50;99856.22;;;15.27;77.53
81181;BME280;70650;51.408;7.132;2023-07-02T06:02:16;99850.75;;;15.28;77.53
81181;BME280;70650;51.408;7.132;2023-07-02T06:04:41;99855.13;;;15.18;77.94
81181;BME280;70650;51.408;7.132;2023-07-02T06:07:06;99862.75;;;15.23;78.06
81181;BME280;70650;51.408;7.132;2023-07-02T06:09:32;99864.06;;;15.28;78.08
81181;BME280;70650;51.408;7.132;2023-07-02T06:11:57;99868.78;;;15.25;77.31
81181;BME280;70650;51.408;7.132;2023-07-02T06:14:23;99866.25;;;15.23;77.38
81181;BME280;70650;51.408;7.132;2023-07-02T06:16:51;99868.44;;;15.29;77.10
81181;BME280;70650;51.408;7.132;2023-07-02T06:19:16;99867.09;;;15.35;77.46
81181;BME280;70650;51.408;7.132;2023-07-02T06:21:41;99867.56;;;15.40;76.99
81181;BME280;70650;51.408;7.132;2023-07-02T06:24:06;99871.38;;;15.58;76.36
81181;BME280;70650;51.408;7.132;2023-07-02T06:26:32;99877.53;;;15.70;76.28
81181;BME280;70650;51.408;7.132;2023-07-02T06:28:58;99874.53;;;15.63;74.71
81181;BME280;70650;51.408;7.132;2023-07-02T06:31:24;99879.97;;;15.73;74.87
81181;BME280;70650;51.408;7.132;2023-07-02T06:33:49;99872.81;;;15.74;74.81
81181;BME280;70650;51.408;7.132;2023-07-02T06:36:14;99868.19;;;15.76;74.97
81181;BME280;70650;51.408;7.132;2023-07-02T06:38:40;99884.34;;;15.63;73.39
81181;BME280;70650;51.408;7.132;2023-07-02T06:41:06;99880.72;;;15.64;73.77
81181;BME280;70650;51.408;7.132;2023-07-02T06:43:31;99878.50;;;15.69;73.28
81181;BME280;70650;51.408;7.132;2023-07-02T06:45:56;99885.44;;;15.72;72.14
81181;BME280;70650;51.408;7.132;2023-07-02T06:48:21;99886.22;;;15.83;72.42
81181;BME280;70650;51.408;7.132;2023-07-02T06:50:47;99880.44;;;15.99;70.90
81181;BME280;70650;51.408;7.132;2023-07-02T06:53:13;99884.41;;;16.05;70.19
81181;BME280;70650;51.408;7.132;2023-07-02T06:55:38;99888.00;;;16.15;68.73
81181;BME280;70650;51.408;7.132;2023-07-02T06:58:07;99898.84;;;16.02;67.60
81181;BME280;70650;51.408;7.132;2023-07-02T07:00:32;99896.94;;;15.93;67.85
81181;BME280;70650;51.408;7.132;2023-07-02T07:03:02;99897.63;;;16.06;69.15
81181;BME280;70650;51.408;7.132;2023-07-02T07:05:30;99900.94;;;16.20;68.82
81181;BME280;70650;51.408;7.132;2023-07-02T07:07:55;99902.25;;;16.25;66.79
81181;BME280;70650;51.408;7.132;2023-07-02T07:10:21;99909.06;;;16.39;66.77
81181;BME280;70650;51.408;7.132;2023-07-02T07:12:46;99900.13;;;16.40;65.42
81181;BME280;70650;51.408;7.132;2023-07-02T07:15:11;99900.44;;;16.47;65.55
81181;BME280;70650;51.408;7.132;2023-07-02T07:17:37;99899.06;;;16.52;64.50
81181;BME280;70650;51.408;7.132;2023-07-02T07:20:02;99897.28;;;16.62;64.83
81181;BME280;70650;51.408;7.132;2023-07-02T07:22:30;99901.19;;;16.58;65.33
81181;BME280;70650;51.408;7.132;2023-07-02T07:24:55;99899.31;;;16.49;65.38
81181;BME280;70650;51.408;7.132;2023-07-02T07:27:20;99906.59;;;16.47;64.58
81181;BME280;70650;51.408;7.132;2023-07-02T07:29:47;99908.22;;;16.59;64.61
81181;BME280;70650;51.408;7.132;2023-07-02T07:32:12;99910.09;;;16.68;62.97
81181;BME280;70650;51.408;7.132;2023-07-02T07:34:37;99913.50;;;16.71;63.35
81181;BME280;70650;51.408;7.132;2023-07-02T07:37:03;99916.53;;;16.66;62.31
81181;BME280;70650;51.408;7.132;2023-07-02T07:39:28;99910.09;;;16.68;58.73
81181;BME280;70650;51.408;7.132;2023-07-02T07:41:53;99909.31;;;16.78;60.12
81181;BME280;70650;51.408;7.132;2023-07-02T07:44:19;99918.38;;;16.86;61.43
81181;BME280;70650;51.408;7.132;2023-07-02T07:46:44;99917.09;;;16.81;61.09
81181;BME280;70650;51.408;7.132;2023-07-02T07:49:09;99920.78;;;16.68;59.94
81181;BME280;70650;51.408;7.132;2023-07-02T07:51:34;99926.69;;;16.93;58.83
81181;BME280;70650;51.408;7.132;2023-07-02T07:54:01;99924.13;;;17.22;58.43
81181;BME280;70650;51.408;7.132;2023-07-02T07:56:27;99928.78;;;17.30;55.57
81181;BME280;70650;51.408;7.132;2023-07-02T07:58:52;99922.59;;;17.19;55.00
81181;BME280;70650;51.408;7.132;2023-07-02T08:01:17;99921.25;;;17.04;54.88
81181;BME280;70650;51.408;7.132;2023-07-02T08:03:43;99931.13;;;16.83;55.81
81181;BME280;70650;51.408;7.132;2023-07-02T08:06:08;99924.69;;;16.85;56.69
81181;BME280;70650;51.408;7.132;2023-07-02T08:08:33;99936.13;;;16.97;57.49
81181;BME280;70650;51.408;7.132;2023-07-02T08:10:59;99941.28;;;16.89;55.30
81181;BME280;70650;51.408;7.132;2023-07-02T08:13:24;99939.59;;;16.88;56.00
81181;BME280;70650;51.408;7.132;2023-07-02T08:15:49;99945.53;;;16.91;58.35
81181;BME280;70650;51.408;7.132;2023-07-02T08:18:15;99937.75;;;16.88;57.43
81181;BME280;70650;51.408;7.132;2023-07-02T08:20:40;99953.78;;;16.88;58.44
81181;BME280;70650;51.408;7.132;2023-07-02T08:23:05;99963.63;;;16.88;58.19
81181;BME280;70650;51.408;7.132;2023-07-02T08:25:30;99957.13;;;16.81;57.60
81181;BME280;70650;51.408;7.132;2023-07-02T08:27:56;99950.56;;;16.85;57.51
81181;BME280;70650;51.408;7.132;2023-07-02T08:30:23;99968.56;;;16.92;56.61
81181;BME280;70650;51.408;7.132;2023-07-02T08:32:48;99961.47;;;17.03;54.63
81181;BME280;70650;51.408;7.132;2023-07-02T08:35:14;99962.47;;;17.11;54.35
81181;BME280;70650;51.408;7.132;2023-07-02T08:37:39;99972.91;;;17.14;53.94
81181;BME280;70650;51.408;7.132;2023-07-02T08:40:05;99967.94;;;17.10;51.42
81181;BME280;70650;51.408;7.132;2023-07-02T08:42:34;99967.09;;;17.09;50.71
81181;BME280;70650;51.408;7.132;2023-07-02T08:45:01;99971.47;;;17.10;50.25
81181;BME280;70650;51.408;7.132;2023-07-02T08:47:26;99962.59;;;17.10;50.48
81181;BME280;70650;51.408;7.132;2023-07-02T08:49:52;99971.59;;;17.09;51.38
81181;BME280;70650;51.408;7.132;2023-07-02T08:52:18;99970.69;;;17.29;51.57
81181;BME280;70650;51.408;7.132;2023-07-02T08:54:45;99962.69;;;17.29;50.88
81181;BME280;70650;51.408;7.132;2023-07-02T08:57:10;99969.75;;;17.30;50.88
81181;BME280;70650;51.408;7.132;2023-07-02T08:59:36;99977.59;;;17.32;50.20
81181;BME280;70650;51.408;7.132;2023-07-02T09:02:01;99965.84;;;17.44;50.74
81181;BME280;70650;51.408;7.132;2023-07-02T09:04:27;99965.88;;;17.54;49.42
81181;BME280;70650;51.408;7.132;2023-07-02T09:07:07;99967.50;;;17.85;50.75
81181;BME280;70650;51.408;7.132;2023-07-02T09:09:34;99971.19;;;17.94;49.91
81181;BME280;70650;51.408;7.132;2023-07-02T09:12:10;99972.25;;;17.72;50.40
81181;BME280;70650;51.408;7.132;2023-07-02T09:14:35;99979.66;;;17.59;50.58
81181;BME280;70650;51.408;7.132;2023-07-02T09:17:08;99985.25;;;17.46;51.60
81181;BME280;70650;51.408;7.132;2023-07-02T09:19:48;99986.22;;;17.45;50.75
81181;BME280;70650;51.408;7.132;2023-07-02T09:22:14;99990.13;;;17.41;50.78
81181;BME280;70650;51.408;7.132;2023-07-02T09:24:40;99982.31;;;17.49;51.92
81181;BME280;70650;51.408;7.132;2023-07-02T09:27:06;99986.66;;;17.50;50.93
81181;BME280;70650;51.408;7.132;2023-07-02T09:29:32;99999.25;;;17.29;49.39
81181;BME280;70650;51.408;7.132;2023-07-02T09:32:03;99985.56;;;17.22;50.03
81181;BME280;70650;51.408;7.132;2023-07-02T09:34:36;99985.53;;;17.43;50.46
81181;BME280;70650;51.408;7.132;2023-07-02T09:37:03;99975.03;;;17.61;49.60
81181;BME280;70650;51.408;7.132;2023-07-02T09:39:31;99983.81;;;17.92;51.10
81181;BME280;70650;51.408;7.132;2023-07-02T09:41:59;99977.78;;;17.90;49.30
81181;BME280;70650;51.408;7.132;2023-07-02T09:44:28;99980.31;;;18.01;49.70
81181;BME280;70650;51.408;7.132;2023-07-02T09:49:48;99982.13;;;17.91;50.11
81181;BME280;70650;51.408;7.132;2023-07-02T09:52:14;99981.16;;;17.92;50.63
81181;BME280;70650;51.408;7.132;2023-07-02T09:54:41;99982.88;;;18.12;50.81
81181;BME280;70650;51.408;7.132;2023-07-02T09:57:06;99978.09;;;18.16;51.18
81181;BME280;70650;51.408;7.132;2023-07-02T09:59:32;99979.78;;;18.26;52.18
81181;BME280;70650;51.408;7.132;2023-07-02T10:01:57;99975.84;;;18.40;50.71
81181;BME280;70650;51.408;7.132;2023-07-02T10:04:23;99976.53;;;18.52;49.23
81181;BME280;70650;51.408;7.132;2023-07-02T10:06:54;99976.94;;;18.09;49.63
81181;BME280;70650;51.408;7.132;2023-07-02T10:09:21;99977.34;;;17.85;51.16
81181;BME280;70650;51.408;7.132;2023-07-02T10:11:59;99994.34;;;17.74;51.46
81181;BME280;70650;51.408;7.132;2023-07-02T10:14:24;99987.25;;;17.63;51.69
81181;BME280;70650;51.408;7.132;2023-07-02T10:16:50;99991.31;;;17.58;51.67
81181;BME280;70650;51.408;7.132;2023-07-02T10:19:15;99996.25;;;17.62;53.21
81181;BME280;70650;51.408;7.132;2023-07-02T10:21:41;100006.81;;;17.54;51.72
81181;BME280;70650;51.408;7.132;2023-07-02T10:24:11;100004.44;;;17.61;52.45
81181;BME280;70650;51.408;7.132;2023-07-02T10:26:37;100004.53;;;17.49;51.23
81181;BME280;70650;51.408;7.132;2023-07-02T10:29:02;100017.91;;;17.49;51.99
81181;BME280;70650;51.408;7.132;2023-07-02T10:31:28;100011.88;;;17.57;52.19
81181;BME280;70650;51.408;7.132;2023-07-02T10:33:54;100013.97;;;17.54;52.84
81181;BME280;70650;51.408;7.132;2023-07-02T10:36:20;100020.72;;;17.48;52.34
81181;BME280;70650;51.408;7.132;2023-07-02T10:38:47;100022.81;;;17.44;52.81
81181;BME280;70650;51.408;7.132;2023-07-02T10:41:12;100013.09;;;17.43;52.35
81181;BME280;70650;51.408;7.132;2023-07-02T10:43:37;100006.63;;;17.77;52.69
81181;BME280;70650;51.408;7.132;2023-07-02T10:46:03;100007.78;;;17.93;51.43
81181;BME280;70650;51.408;7.132;2023-07-02T10:48:30;100002.59;;;18.40;50.52
81181;BME280;70650;51.408;7.132;2023-07-02T10:50:55;99998.78;;;18.23;50.34
81181;BME280;70650;51.408;7.132;2023-07-02T10:53:21;99991.59;;;18.53;48.50
81181;BME280;70650;51.408;7.132;2023-07-02T10:55:53;100005.97;;;18.13;48.22
81181;BME280;70650;51.408;7.132;2023-07-02T10:58:20;100006.94;;;17.93;49.21
81181;BME280;70650;51.408;7.132;2023-07-02T11:00:50;100007.59;;;17.76;48.52
81181;BME280;70650;51.408;7.132;2023-07-02T11:03:23;100006.78;;;17.85;49.10
81181;BME280;70650;51.408;7.132;2023-07-02T11:05:50;100012.50;;;17.70;47.90
81181;BME280;70650;51.408;7.132;2023-07-02T11:08:16;100013.81;;;17.76;47.21
81181;BME280;70650;51.408;7.132;2023-07-02T11:10:42;100002.13;;;17.87;48.44
81181;BME280;70650;51.408;7.132;2023-07-02T11:13:18;100010.59;;;18.01;48.44
81181;BME280;70650;51.408;7.132;2023-07-02T11:15:44;100017.38;;;18.15;48.46
81181;BME280;70650;51.408;7.132;2023-07-02T11:18:14;100015.69;;;18.14;47.42
81181;BME280;70650;51.408;7.132;2023-07-02T11:20:44;100009.91;;;18.19;45.64
81181;BME280;70650;51.408;7.132;2023-07-02T11:23:25;100016.41;;;18.36;47.67
81181;BME280;70650;51.408;7.132;2023-07-02T11:26:00;100018.38;;;18.34;46.73
81181;BME280;70650;51.408;7.132;2023-07-02T11:28:27;100023.88;;;18.61;46.49
81181;BME280;70650;51.408;7.132;2023-07-02T11:30:53;100010.91;;;18.37;47.02
81181;BME280;70650;51.408;7.132;2023-07-02T11:33:21;100020.91;;;18.74;47.27
81181;BME280;70650;51.408;7.132;2023-07-02T11:35:56;100012.41;;;18.98;45.99
81181;BME280;70650;51.408;7.132;2023-07-02T11:38:22;100011.00;;;18.94;45.07
81181;BME280;70650;51.408;7.132;2023-07-02T11:40:47;100011.72;;;18.96;46.63
81181;BME280;70650;51.408;7.132;2023-07-02T11:43:13;100014.31;;;19.25;45.53
81181;BME280;70650;51.408;7.132;2023-07-02T11:45:38;100013.00;;;18.82;47.17
81181;BME280;70650;51.408;7.132;2023-07-02T11:48:04;100009.72;;;19.08;48.00
81181;BME280;70650;51.408;7.132;2023-07-02T11:50:29;100012.41;;;18.98;47.05
81181;BME280;70650;51.408;7.132;2023-07-02T11:52:55;100015.47;;;19.13;47.70
81181;BME280;70650;51.408;7.132;2023-07-02T11:55:21;100006.38;;;18.86;47.35
81181;BME280;70650;51.408;7.132;2023-07-02T11:57:46;100007.78;;;18.90;46.89
81181;BME280;70650;51.408;7.132;2023-07-02T12:00:14;100026.41;;;18.63;47.17
81181;BME280;70650;51.408;7.132;2023-07-02T12:02:39;100015.25;;;18.48;48.14
81181;BME280;70650;51.408;7.132;2023-07-02T12:05:05;100016.25;;;18.66;47.45
81181;BME280;70650;51.408;7.132;2023-07-02T12:07:30;100013.72;;;18.74;46.27
81181;BME280;70650;51.408;7.132;2023-07-02T12:09:55;100015.28;;;18.67;46.43
81181;BME280;70650;51.408;7.132;2023-07-02T12:12:21;99997.50;;;18.76;46.37
81181;BME280;70650;51.408;7.132;2023-07-02T12:14:46;100018.94;;;18.76;45.08
81181;BME280;70650;51.408;7.132;2023-07-02T12:17:12;100021.38;;;19.16;43.52
81181;BME280;70650;51.408;7.132;2023-07-02T12:19:40;100022.38;;;19.52;43.37
81181;BME280;70650;51.408;7.132;2023-07-02T12:22:06;100011.53;;;19.44;41.88
81181;BME280;70650;51.408;7.132;2023-07-02T12:24:31;100018.53;;;19.65;42.76
81181;BME280;70650;51.408;7.132;2023-07-02T12:26:57;100017.28;;;19.59;42.24
81181;BME280;70650;51.408;7.132;2023-07-02T12:29:23;100016.56;;;19.29;41.39
81181;BME280;70650;51.408;7.132;2023-07-02T12:31:48;100015.13;;;19.63;42.49
81181;BME280;70650;51.408;7.132;2023-07-02T12:34:14;100020.94;;;19.58;40.68
81181;BME280;70650;51.408;7.132;2023-07-02T12:36:40;100018.63;;;19.73;40.89
81181;BME280;70650;51.408;7.132;2023-07-02T12:39:05;100019.00;;;20.05;40.68
81181;BME280;70650;51.408;7.132;2023-07-02T12:41:33;100008.81;;;20.45;41.57
81181;BME280;70650;51.408;7.132;2023-07-02T12:43:58;100018.78;;;20.34;41.73
81181;BME280;70650;51.408;7.132;2023-07-02T12:46:23;100009.06;;;19.70;40.93
81181;BME280;70650;51.408;7.132;2023-07-02T12:48:49;100020.19;;;19.75;41.84
81181;BME280;70650;51.408;7.132;2023-07-02T12:51:14;100023.81;;;20.02;42.42
81181;BME280;70650;51.408;7.132;2023-07-02T12:53:39;100027.44;;;20.10;40.84
81181;BME280;70650;51.408;7.132;2023-07-02T12:56:05;100026.63;;;20.46;41.50